Aeroporto :
LOGIN :

Iscrizione | Disclaimer

   EN    FR    IT 

 










Sommario :    VFR   VFR Marginale   IFR   IFR Intensivo   IFR Molto Intensivo
Visibilità : 
Base nubi : 
>= 8 km
>= 3000ft
5 / 8 km
1000 / 3000 ft
1500m / 5 km
500 / 1000 ft
800 / 1500m
200 / 500 ft
< 800m
< 200 ft
Simboli :   Temporali  Nebbia  Neve Forte  Precipitazioni Forti  Vento > 20 kt
SIGMETs :   Varie  Temporali  Ghiacco  Turbolenza  Onda orograficha  Ceneri Vulcaniche






- Altitudine del aeroporto : 13 ft
- Codice IATA : SNR


LFRZ - St-Nazaire

ULTIMO METAR :
  • 161800Z AUTO 27013KT 240V300 5000 -RA BR FEW009/// SCT031/// BKN039/// ///TCU 09/09 Q1013 TEMPO RA BKN010 BKN020CB BECMG 25015G25KT

METARs OBSOLETI :
  • 161730Z AUTO 29017KT 3400 -RA BR FEW008 BKN012 BKN019 10/09 Q1012 TEMPO RA BKN010 BKN020CB BECMG 25015G25KT
  • 161700Z AUTO 27011KT 3900 -RA BR BKN007 BKN018 OVC030 10/10 Q1011 TEMPO RA BKN010 BKN020CB BECMG 28020G30KT
  • 161630Z AUTO 28014KT 3000 -RA BR FEW009 BKN023 OVC029 10/09 Q1011 TEMPO RA BKN010 BKN020CB BECMG 28020G30KT
  • 161600Z AUTO 28018KT 3100 -RA BR FEW009/// BKN016/// OVC027/// ///TCU 11/10 Q1010 TEMPO RA BKN010 BKN020CB BECMG 21025G40KT
  • 161530Z AUTO 22030G41KT 9999 OVC021/// ///TCU 15/12 Q1008 TEMPO 4000 RA BKN010 BKN020CB

TAF TAF LFRZ
Valido dal 16 a 18 ore il 17 a 18 ore UTC


161700Z 1618/1718 25015G25KT 9999 BKN030
TEMPO 1618/1620 3000 RA BKN010 BKN020CB
BECMG 1700/1702 25012KT
PROB30
TEMPO 1620/1711 4000 -SHRA
TEMPO 1711/1716 26015G30KT SHRA SCT020TCU



MetMap, La meteo Aeronautica in un colpo d'occhio ! - Copyright ORBIFLY Dicembre 2007 - Disclaimer

ORBIFLY MET'MAP TEAM :

Programmazione e sviluppo : Alexandra Zaïnal
Concezione : Baudouin d'Aumeries
Aiuto per la programmazione : Marc-Olivier Méhu
Supporto tecnico e logistico : Manuel Goepfert
Aiuto per la traduzione : Arnaldo La Scala

Contatto : metmap@orbifly.com




FONTI E CREDITI :

   NOAA